createdAt,value
2023-01-13T00:01:16.803Z,17.92
2023-01-13T00:03:43.919Z,22.85
2023-01-13T00:06:15.431Z,19.35
2023-01-13T00:08:41.918Z,15.25
2023-01-13T00:11:09.598Z,20.25
2023-01-13T00:13:38.114Z,18.80
2023-01-13T00:18:34.377Z,16.30
2023-01-13T00:23:36.220Z,15.48
2023-01-13T00:26:06.998Z,19.92
2023-01-13T00:28:33.827Z,21.23
2023-01-13T00:31:27.564Z,16.90
2023-01-13T00:33:56.924Z,26.80
2023-01-13T00:36:23.649Z,15.27
2023-01-13T00:38:50.638Z,17.67
2023-01-13T00:41:19.920Z,19.50
2023-01-13T00:43:48.312Z,24.08
2023-01-13T00:46:17.690Z,19.58
2023-01-13T00:48:44.308Z,17.90
2023-01-13T00:51:13.817Z,16.85
2023-01-13T00:53:44.884Z,21.40
2023-01-13T00:56:18.095Z,20.40
2023-01-13T00:58:46.065Z,17.23
2023-01-13T01:01:18.451Z,17.98
2023-01-13T01:03:48.264Z,16.42
2023-01-13T01:06:20.781Z,15.60
2023-01-13T01:08:47.570Z,18.05
2023-01-13T01:11:20.899Z,18.33
2023-01-13T01:13:47.875Z,16.75
2023-01-13T01:16:17.392Z,17.60
2023-01-13T01:18:46.714Z,19.60
2023-01-13T01:21:14.388Z,18.58
2023-01-13T01:23:41.447Z,19.20
2023-01-13T01:26:15.012Z,15.77
2023-01-13T01:28:42.273Z,15.93
2023-01-13T01:31:12.766Z,19.00
2023-01-13T01:33:41.119Z,20.98
2023-01-13T01:36:09.219Z,15.43
2023-01-13T01:38:35.710Z,18.70
2023-01-13T01:41:02.459Z,18.23
2023-01-13T01:43:59.608Z,16.98
2023-01-13T01:46:28.173Z,14.48
2023-01-13T01:51:23.961Z,27.67
2023-01-13T01:53:51.323Z,17.27
2023-01-13T01:56:19.593Z,13.77
2023-01-13T01:58:50.179Z,19.63
2023-01-13T02:01:16.985Z,19.30
2023-01-13T02:03:52.020Z,16.70
2023-01-13T02:06:19.005Z,19.73
2023-01-13T02:08:46.398Z,18.40
2023-01-13T02:11:52.547Z,19.13
2023-01-13T02:14:22.143Z,20.90
2023-01-13T02:17:00.786Z,19.80
2023-01-13T02:19:42.364Z,16.00
2023-01-13T02:22:30.775Z,18.83
2023-01-13T02:25:24.201Z,19.15
2023-01-13T02:28:12.735Z,21.60
2023-01-13T02:31:14.584Z,15.07
2023-01-13T02:33:53.057Z,18.60
2023-01-13T02:36:49.585Z,17.88
2023-01-13T02:39:23.417Z,23.67
2023-01-13T02:42:15.130Z,15.93
2023-01-13T02:44:48.612Z,18.23
2023-01-13T02:47:30.769Z,22.38
2023-01-13T02:50:17.353Z,16.23
2023-01-13T02:52:50.679Z,21.20
2023-01-13T02:55:22.076Z,23.15
2023-01-13T02:57:50.640Z,20.15
2023-01-13T03:00:18.463Z,16.75
2023-01-13T03:02:45.317Z,18.58
2023-01-13T03:05:17.262Z,23.25
2023-01-13T03:07:49.995Z,17.88
2023-01-13T03:10:56.642Z,15.43
2023-01-13T03:13:51.849Z,15.63
2023-01-13T03:16:24.026Z,18.90
2023-01-13T03:19:29.086Z,23.73
2023-01-13T03:22:07.333Z,29.67
2023-01-13T03:24:42.246Z,17.85
2023-01-13T03:27:33.675Z,14.93
2023-01-13T03:30:00.173Z,20.35
2023-01-13T03:32:32.506Z,22.75
2023-01-13T03:35:11.153Z,20.08
2023-01-13T03:37:42.217Z,17.95
2023-01-13T03:40:18.121Z,13.95
2023-01-13T03:43:09.146Z,19.45
2023-01-13T03:45:37.740Z,16.60
2023-01-13T03:48:09.561Z,21.58
2023-01-13T03:50:42.044Z,18.25
2023-01-13T03:53:18.095Z,19.30
2023-01-13T03:55:50.307Z,17.83
2023-01-13T03:58:23.736Z,16.90
2023-01-13T04:01:16.099Z,16.48
2023-01-13T04:04:06.173Z,12.27
2023-01-13T04:06:55.563Z,13.57
2023-01-13T04:09:35.884Z,14.57
2023-01-13T04:12:13.854Z,17.42
2023-01-13T04:14:41.607Z,10.82
2023-01-13T04:17:08.239Z,22.38
2023-01-13T04:19:34.803Z,12.80
2023-01-13T04:22:01.347Z,11.27
2023-01-13T04:24:28.179Z,15.55
2023-01-13T04:26:56.439Z,14.75
2023-01-13T04:29:23.234Z,12.95
2023-01-13T04:31:50.467Z,16.15
2023-01-13T04:34:17.677Z,10.45
2023-01-13T04:36:45.169Z,12.63
2023-01-13T04:39:12.082Z,8.13
2023-01-13T04:41:57.322Z,8.70
2023-01-13T04:44:24.009Z,10.10
2023-01-13T04:46:50.647Z,9.02
2023-01-13T04:49:17.314Z,8.90
2023-01-13T04:51:43.862Z,8.80
2023-01-13T04:54:11.291Z,7.75
2023-01-13T04:56:37.809Z,12.98
2023-01-13T04:59:04.378Z,7.93
2023-01-13T05:01:31.113Z,8.00
2023-01-13T05:03:58.072Z,9.23
2023-01-13T05:06:24.597Z,13.38
2023-01-13T05:08:51.246Z,7.35
2023-01-13T05:11:38.334Z,11.82
2023-01-13T05:14:23.810Z,8.77
2023-01-13T05:17:02.482Z,9.18
2023-01-13T05:19:34.035Z,8.18
2023-01-13T05:22:20.086Z,7.32
2023-01-13T05:25:05.839Z,9.60
2023-01-13T05:27:33.458Z,10.48
2023-01-13T05:30:00.099Z,11.48
2023-01-13T05:32:30.520Z,11.82
2023-01-13T05:34:57.256Z,8.65
2023-01-13T05:37:24.810Z,5.88
2023-01-13T05:40:10.594Z,8.07
2023-01-13T05:42:55.477Z,9.45
2023-01-13T05:45:22.320Z,8.07
2023-01-13T05:47:48.828Z,7.65
2023-01-13T05:50:16.123Z,11.45
2023-01-13T05:52:43.534Z,11.45
2023-01-13T05:55:11.857Z,11.05
2023-01-13T05:57:38.519Z,10.38
2023-01-13T06:00:05.932Z,11.73
2023-01-13T06:02:32.717Z,8.77
2023-01-13T06:04:59.565Z,10.27
2023-01-13T06:07:26.058Z,9.55
2023-01-13T06:09:52.573Z,11.90
2023-01-13T06:12:19.159Z,11.40
2023-01-13T06:14:45.736Z,14.88
2023-01-13T06:17:14.258Z,10.57
2023-01-13T06:22:15.636Z,14.30
2023-01-13T06:24:43.468Z,10.32
2023-01-13T06:27:10.259Z,14.43
2023-01-13T06:29:36.904Z,11.68
2023-01-13T06:32:07.090Z,13.25
2023-01-13T06:34:35.607Z,10.90
2023-01-13T06:39:31.795Z,10.82
2023-01-13T06:42:18.333Z,11.80
2023-01-13T06:44:45.662Z,12.23
2023-01-13T06:47:12.222Z,13.15
2023-01-13T06:49:38.759Z,11.52
2023-01-13T06:52:05.499Z,9.43
2023-01-13T06:54:32.068Z,9.95
2023-01-13T06:56:58.736Z,10.30
2023-01-13T06:59:25.882Z,12.95
2023-01-13T07:01:52.678Z,9.63
2023-01-13T07:04:19.485Z,7.82
2023-01-13T07:06:46.001Z,11.05
2023-01-13T07:09:12.676Z,13.18
2023-01-13T07:11:39.297Z,13.68
2023-01-13T07:14:41.080Z,9.25
2023-01-13T07:17:07.589Z,14.43
2023-01-13T07:19:34.189Z,9.82
2023-01-13T07:22:01.805Z,8.10
2023-01-13T07:24:28.471Z,10.93
2023-01-13T07:26:55.023Z,12.65
2023-01-13T07:29:21.578Z,9.20
2023-01-13T07:31:50.094Z,13.48
2023-01-13T07:34:17.035Z,12.95
2023-01-13T07:36:43.583Z,14.23
2023-01-13T07:39:11.552Z,10.07
2023-01-13T07:41:56.831Z,13.35
2023-01-13T07:44:23.396Z,14.57
2023-01-13T07:46:49.909Z,14.10
2023-01-13T07:49:16.411Z,14.80
2023-01-13T07:51:42.928Z,12.57
2023-01-13T07:54:09.429Z,12.45
2023-01-13T07:56:35.947Z,15.88
2023-01-13T07:59:02.732Z,13.23
2023-01-13T08:01:29.603Z,11.85
2023-01-13T08:03:56.414Z,16.25
2023-01-13T08:06:23.478Z,18.30
2023-01-13T08:08:50.467Z,12.70
2023-01-13T08:11:17.416Z,15.25
2023-01-13T08:13:44.018Z,12.65
2023-01-13T08:16:13.970Z,11.85
2023-01-13T08:18:41.550Z,12.80
2023-01-13T08:21:11.275Z,13.70
2023-01-13T08:23:38.497Z,9.18
2023-01-13T08:26:10.501Z,13.45
2023-01-13T08:28:37.635Z,16.77
2023-01-13T08:31:07.080Z,15.43
2023-01-13T08:33:34.291Z,12.45
2023-01-13T08:36:06.501Z,18.67
2023-01-13T08:38:35.683Z,17.55
2023-01-13T08:41:12.307Z,10.18
2023-01-13T08:43:38.948Z,12.20
2023-01-13T08:46:05.757Z,12.50
2023-01-13T08:48:32.935Z,13.00
2023-01-13T08:51:07.558Z,14.40
2023-01-13T08:56:00.603Z,11.35
2023-01-13T08:58:27.233Z,13.40
2023-01-13T09:00:53.836Z,18.55
2023-01-13T09:03:20.463Z,11.73
2023-01-13T09:05:47.068Z,14.15
2023-01-13T09:08:13.740Z,12.43
2023-01-13T09:10:40.633Z,18.50
2023-01-13T09:13:13.312Z,12.88
2023-01-13T09:15:42.175Z,12.18
2023-01-13T09:18:09.232Z,16.70
2023-01-13T09:20:35.896Z,21.70
2023-01-13T09:23:03.026Z,13.07
2023-01-13T09:25:29.619Z,14.15
2023-01-13T09:27:56.948Z,13.23
2023-01-13T09:30:24.291Z,12.02
2023-01-13T09:33:10.909Z,14.73
2023-01-13T09:35:37.433Z,13.40
2023-01-13T09:38:04.140Z,16.38
2023-01-13T09:40:30.743Z,13.32
2023-01-13T09:43:30.058Z,13.90
2023-01-13T09:46:02.835Z,15.23
2023-01-13T09:48:52.010Z,13.43
2023-01-13T09:51:50.093Z,9.90
2023-01-13T09:54:41.887Z,15.65
2023-01-13T09:57:13.499Z,13.88
2023-01-13T09:59:40.505Z,11.15
2023-01-13T10:02:37.394Z,14.43
2023-01-13T10:05:14.942Z,22.70
2023-01-13T10:08:21.882Z,13.35
2023-01-13T10:10:51.579Z,47.33
2023-01-13T10:13:27.845Z,13.20
2023-01-13T10:16:52.307Z,16.15
2023-01-13T10:19:24.353Z,12.95
2023-01-13T10:22:09.823Z,13.13
2023-01-13T10:25:01.210Z,10.75
2023-01-13T10:27:34.887Z,13.93
2023-01-13T10:30:11.671Z,13.75
2023-01-13T10:32:38.684Z,13.88
2023-01-13T10:35:05.532Z,18.33
2023-01-13T10:37:32.068Z,12.57
2023-01-13T10:40:02.216Z,11.85
2023-01-13T10:42:29.151Z,13.85
2023-01-13T10:45:00.264Z,14.25
2023-01-13T10:47:37.143Z,15.52
2023-01-13T10:50:09.348Z,12.23
2023-01-13T10:52:40.758Z,12.73
2023-01-13T10:55:27.247Z,11.70
2023-01-13T10:57:53.757Z,13.93
2023-01-13T11:00:31.667Z,12.98
2023-01-13T11:03:21.515Z,9.07
2023-01-13T11:05:59.232Z,10.15
2023-01-13T11:08:29.215Z,11.80
2023-01-13T11:10:59.580Z,11.32
2023-01-13T11:13:33.736Z,10.35
2023-01-13T11:16:18.162Z,12.88
2023-01-13T11:19:11.905Z,13.35
2023-01-13T11:22:00.939Z,10.88
2023-01-13T11:24:40.067Z,13.30
2023-01-13T11:27:19.705Z,11.15
2023-01-13T11:30:21.633Z,11.25
2023-01-13T11:33:10.212Z,12.23
2023-01-13T11:35:48.095Z,11.25
2023-01-13T11:38:52.115Z,12.48
2023-01-13T11:41:36.459Z,11.05
2023-01-13T11:44:18.152Z,10.70
2023-01-13T11:46:44.928Z,9.10
2023-01-13T11:49:22.413Z,10.88
2023-01-13T11:52:29.791Z,13.50
2023-01-13T11:55:02.096Z,9.15
2023-01-13T11:57:50.037Z,10.82
2023-01-13T12:00:28.073Z,9.00
2023-01-13T12:03:16.246Z,8.05
2023-01-13T12:05:48.559Z,10.75
2023-01-13T12:08:20.757Z,11.57
2023-01-13T12:11:10.991Z,10.85
2023-01-13T12:13:50.103Z,10.85
2023-01-13T12:16:16.675Z,9.68
2023-01-13T12:18:55.329Z,9.27
2023-01-13T12:21:26.613Z,14.85
2023-01-13T12:24:13.183Z,8.57
2023-01-13T12:26:44.701Z,8.60
2023-01-13T12:29:18.890Z,14.65
2023-01-13T12:31:50.164Z,9.07
2023-01-13T12:34:47.696Z,7.97
2023-01-13T12:37:35.428Z,17.92
2023-01-13T12:40:43.848Z,11.25
2023-01-13T12:43:38.776Z,9.55
2023-01-13T12:46:21.656Z,14.55
2023-01-13T12:48:57.165Z,8.20
2023-01-13T12:51:33.826Z,7.35
2023-01-13T12:54:02.328Z,8.60
2023-01-13T12:56:44.646Z,9.40
2023-01-13T12:59:17.519Z,11.25
2023-01-13T13:01:46.301Z,10.45
2023-01-13T13:04:41.419Z,10.15
2023-01-13T13:07:14.244Z,15.07
2023-01-13T13:09:44.876Z,5.05
2023-01-13T13:13:00.845Z,6.78
2023-01-13T13:15:29.795Z,13.40
2023-01-13T13:17:59.372Z,9.63
2023-01-13T13:20:54.222Z,10.80
2023-01-13T13:23:48.464Z,7.95
2023-01-13T13:26:36.298Z,7.15
2023-01-13T13:29:11.959Z,9.73
2023-01-13T13:31:44.788Z,7.75
2023-01-13T13:34:32.458Z,9.10
2023-01-13T13:37:07.860Z,10.20
2023-01-13T13:39:53.463Z,10.32
2023-01-13T13:42:47.134Z,6.18
2023-01-13T13:45:41.202Z,7.95
2023-01-13T13:48:22.862Z,6.30
2023-01-13T13:51:04.726Z,10.38
2023-01-13T13:53:42.340Z,11.52
2023-01-13T13:56:20.279Z,9.68
2023-01-13T13:58:48.307Z,8.90
2023-01-13T14:01:25.219Z,10.45
2023-01-13T14:04:12.262Z,10.00
2023-01-13T14:06:50.232Z,7.63
2023-01-13T14:09:17.779Z,6.13
2023-01-13T14:11:54.820Z,8.85
2023-01-13T14:14:21.419Z,7.35
2023-01-13T14:16:48.083Z,10.38
2023-01-13T14:19:36.860Z,13.07
2023-01-13T14:22:05.105Z,8.75
2023-01-13T14:27:16.819Z,9.95
2023-01-13T14:29:43.993Z,11.15
2023-01-13T14:32:15.076Z,12.07
2023-01-13T14:34:41.708Z,7.97
2023-01-13T14:37:26.430Z,9.65
2023-01-13T14:39:53.094Z,9.57
2023-01-13T14:42:20.859Z,9.55
2023-01-13T14:44:49.947Z,12.73
2023-01-13T14:47:28.430Z,11.38
2023-01-13T14:50:00.381Z,13.93
2023-01-13T14:52:29.532Z,9.38
2023-01-13T14:55:32.661Z,9.88
2023-01-13T14:58:31.589Z,9.68
2023-01-13T15:01:26.044Z,8.57
2023-01-13T15:03:52.634Z,8.55
2023-01-13T15:06:24.240Z,17.20
2023-01-13T15:08:52.256Z,16.45
2023-01-13T15:11:27.212Z,8.20
2023-01-13T15:14:01.564Z,13.00
2023-01-13T15:16:29.999Z,13.35
2023-01-13T15:21:23.637Z,11.57
2023-01-13T15:23:50.311Z,8.18
2023-01-13T15:26:21.831Z,9.88
2023-01-13T15:28:49.417Z,7.93
2023-01-13T15:31:18.405Z,7.97
2023-01-13T15:33:45.063Z,8.82
2023-01-13T15:36:25.967Z,6.90
2023-01-13T15:38:52.689Z,5.25
2023-01-13T15:41:39.907Z,7.55
2023-01-13T15:44:24.769Z,6.28
2023-01-13T15:46:52.120Z,11.80
2023-01-13T15:49:42.194Z,13.50
2023-01-13T15:52:19.740Z,19.83
2023-01-13T15:54:46.285Z,10.63
2023-01-13T15:57:24.847Z,11.05
2023-01-13T15:59:55.076Z,12.23
2023-01-13T16:02:22.653Z,11.63
2023-01-13T16:04:51.304Z,9.05
2023-01-13T16:07:18.975Z,8.10
2023-01-13T16:09:45.934Z,8.07
2023-01-13T16:12:13.416Z,9.48
2023-01-13T16:14:40.101Z,11.35
2023-01-13T16:17:15.610Z,12.60
2023-01-13T16:19:42.530Z,16.05
2023-01-13T16:22:13.104Z,13.40
2023-01-13T16:24:40.587Z,10.68
2023-01-13T16:27:25.236Z,12.02
2023-01-13T16:29:52.342Z,12.18
2023-01-13T16:32:20.979Z,12.95
2023-01-13T16:34:47.691Z,11.57
2023-01-13T16:37:23.389Z,10.43
2023-01-13T16:39:51.564Z,9.32
2023-01-13T16:42:18.305Z,8.70
2023-01-13T16:44:46.561Z,9.20
2023-01-13T16:47:14.967Z,9.02
2023-01-13T16:52:08.101Z,7.65
2023-01-13T16:54:34.650Z,12.98
2023-01-13T16:57:01.178Z,14.57
2023-01-13T16:59:27.744Z,9.95
2023-01-13T17:01:54.477Z,9.55
2023-01-13T17:04:23.532Z,10.30
2023-01-13T17:07:06.864Z,9.88
2023-01-13T17:09:33.789Z,9.60
2023-01-13T17:12:00.619Z,6.82
2023-01-13T17:14:27.325Z,8.05
2023-01-13T17:16:57.180Z,10.48
2023-01-13T17:19:24.503Z,15.65
2023-01-13T17:21:51.203Z,11.05
2023-01-13T17:24:18.155Z,9.90
2023-01-13T17:26:48.976Z,13.02
2023-01-13T17:29:22.173Z,27.88
2023-01-13T17:31:50.455Z,17.33
2023-01-13T17:34:17.133Z,8.90
2023-01-13T17:36:43.691Z,8.38
2023-01-13T17:39:16.808Z,17.33
2023-01-13T17:41:43.561Z,8.75
2023-01-13T17:44:13.920Z,5.53
2023-01-13T17:46:42.331Z,7.28
2023-01-13T17:49:17.353Z,7.90
2023-01-13T17:51:48.117Z,5.40
2023-01-13T17:54:15.278Z,5.63
2023-01-13T17:56:42.348Z,4.40
2023-01-13T17:59:11.626Z,5.40
2023-01-13T18:01:38.849Z,5.20
2023-01-13T18:04:06.818Z,6.57
2023-01-13T18:06:33.872Z,5.13
2023-01-13T18:09:00.994Z,5.78
2023-01-13T18:11:27.842Z,7.35
2023-01-13T18:13:56.694Z,5.30
2023-01-13T18:16:25.437Z,5.47
2023-01-13T18:19:14.541Z,5.13
2023-01-13T18:22:00.237Z,7.45
2023-01-13T18:24:45.417Z,4.28
2023-01-13T18:27:19.586Z,7.93
2023-01-13T18:29:46.803Z,5.13
2023-01-13T18:32:13.751Z,9.10
2023-01-13T18:34:40.859Z,7.20
2023-01-13T18:37:09.185Z,6.50
2023-01-13T18:39:37.411Z,9.10
2023-01-13T18:42:26.777Z,8.95
2023-01-13T18:44:54.264Z,8.88
2023-01-13T18:47:20.840Z,9.57
2023-01-13T18:49:47.737Z,9.98
2023-01-13T18:52:14.370Z,9.70
2023-01-13T18:54:40.974Z,11.43
2023-01-13T18:57:07.765Z,6.90
2023-01-13T18:59:34.991Z,7.80
2023-01-13T19:02:09.477Z,6.15
2023-01-13T19:04:36.482Z,10.40
2023-01-13T19:07:04.191Z,12.13
2023-01-13T19:09:30.937Z,7.82
2023-01-13T19:11:58.876Z,9.43
2023-01-13T19:14:34.898Z,8.38
2023-01-13T19:17:02.520Z,10.95
2023-01-13T19:19:29.503Z,9.48
2023-01-13T19:21:56.575Z,7.63
2023-01-13T19:24:25.963Z,6.13
2023-01-13T19:26:54.373Z,8.90
2023-01-13T19:29:20.898Z,9.60
2023-01-13T19:31:48.310Z,7.45
2023-01-13T19:34:15.468Z,8.93
2023-01-13T19:36:42.416Z,11.30
2023-01-13T19:39:10.276Z,6.38
2023-01-13T19:41:55.322Z,10.07
2023-01-13T19:44:40.813Z,9.90
2023-01-13T19:47:07.558Z,8.15
2023-01-13T19:49:34.897Z,9.85
2023-01-13T19:52:01.719Z,6.63
2023-01-13T19:54:28.278Z,10.20
2023-01-13T19:56:54.743Z,8.07
2023-01-13T19:59:24.528Z,9.13
2023-01-13T20:01:51.083Z,7.88
2023-01-13T20:04:19.379Z,8.57
2023-01-13T20:06:46.576Z,8.05
2023-01-13T20:09:13.117Z,7.05
2023-01-13T20:11:39.748Z,7.35
2023-01-13T20:14:06.296Z,8.25
2023-01-13T20:16:33.749Z,8.68
2023-01-13T20:19:00.371Z,8.52
2023-01-13T20:21:27.144Z,5.32
2023-01-13T20:23:53.719Z,6.03
2023-01-13T20:26:20.992Z,9.43
2023-01-13T20:28:47.867Z,8.73
2023-01-13T20:31:15.659Z,9.52
2023-01-13T20:33:42.993Z,8.90
2023-01-13T20:36:26.446Z,7.05
2023-01-13T20:38:57.929Z,4.97
2023-01-13T20:41:42.998Z,7.32
2023-01-13T20:44:11.556Z,8.63
2023-01-13T20:49:13.183Z,5.88
2023-01-13T20:51:39.734Z,8.75
2023-01-13T20:54:06.393Z,7.03
2023-01-13T20:56:33.066Z,6.40
2023-01-13T20:58:59.583Z,4.70
2023-01-13T21:01:26.755Z,9.07
2023-01-13T21:03:57.183Z,5.82
2023-01-13T21:06:24.136Z,8.32
2023-01-13T21:08:52.751Z,5.05
2023-01-13T21:11:41.143Z,8.13
2023-01-13T21:14:35.980Z,6.65
2023-01-13T21:17:03.324Z,11.38
2023-01-13T21:19:29.900Z,11.02
2023-01-13T21:21:56.783Z,13.18
2023-01-13T21:24:24.778Z,9.52
2023-01-13T21:27:00.459Z,10.75
2023-01-13T21:29:27.025Z,10.00
2023-01-13T21:31:54.416Z,8.35
2023-01-13T21:34:20.994Z,10.43
2023-01-13T21:36:47.499Z,10.10
2023-01-13T21:39:15.976Z,10.98
2023-01-13T21:42:01.218Z,8.10
2023-01-13T21:44:46.549Z,13.25
2023-01-13T21:47:36.060Z,8.30
2023-01-13T21:50:03.857Z,11.38
2023-01-13T21:52:30.768Z,11.88
2023-01-13T21:55:16.110Z,11.75
2023-01-13T21:58:04.521Z,14.10
2023-01-13T22:00:31.536Z,9.88
2023-01-13T22:03:01.014Z,9.00
2023-01-13T22:05:27.649Z,12.40
2023-01-13T22:07:54.221Z,10.25
2023-01-13T22:10:23.526Z,8.75
2023-01-13T22:12:55.142Z,7.38
2023-01-13T22:15:25.900Z,10.18
2023-01-13T22:17:54.063Z,9.65
2023-01-13T22:20:21.475Z,10.60
2023-01-13T22:22:48.446Z,13.43
2023-01-13T22:25:16.747Z,7.65
2023-01-13T22:27:44.826Z,9.50
2023-01-13T22:30:15.759Z,10.88
2023-01-13T22:32:42.686Z,10.23
2023-01-13T22:35:11.167Z,9.63
2023-01-13T22:40:06.649Z,10.93
2023-01-13T22:42:40.636Z,7.40
2023-01-13T22:45:09.928Z,11.57
2023-01-13T22:47:36.887Z,8.85
2023-01-13T22:50:07.145Z,7.53
2023-01-13T22:52:35.086Z,10.23
2023-01-13T22:55:01.947Z,8.93
2023-01-13T22:57:36.560Z,9.23
2023-01-13T23:00:10.247Z,6.90
2023-01-13T23:02:38.313Z,11.43
2023-01-13T23:05:05.289Z,13.52
2023-01-13T23:07:31.814Z,9.52
2023-01-13T23:09:58.347Z,7.18
2023-01-13T23:12:24.923Z,12.52
2023-01-13T23:14:51.477Z,6.78
2023-01-13T23:17:18.264Z,10.25
2023-01-13T23:19:44.873Z,7.25
2023-01-13T23:22:13.019Z,12.00
2023-01-13T23:24:39.556Z,10.20
2023-01-13T23:27:06.099Z,8.75
2023-01-13T23:29:32.960Z,8.45
2023-01-13T23:31:59.530Z,8.95
2023-01-13T23:34:26.234Z,9.35
2023-01-13T23:36:52.878Z,11.25
2023-01-13T23:39:19.788Z,11.00
2023-01-13T23:41:46.271Z,8.70
2023-01-13T23:44:12.845Z,12.70
2023-01-13T23:46:39.351Z,14.05
2023-01-13T23:49:05.962Z,7.30
2023-01-13T23:51:32.599Z,10.48
2023-01-13T23:53:59.777Z,9.52
2023-01-13T23:56:29.111Z,11.88
2023-01-13T23:58:56.395Z,9.10
